Culver, Kentucky
Current Conditions -  °F | °C
As of 1:10 PM on Friday 31 Oct 2014 (Local Time) from KSYM Reporting Station
Light Rain Light Rain  
Wind Chill: 42°   Ceiling: 2800
Heat Index: 45°   Visibility: 7mi
Dew Point: 43°   Wind: 5mph
Humidity: 93%   Direction: 210°SSW
Pressure: 29.95"   Gusts: NA
Location:  38.1397°N, 83.158°W
Report Text: KSYM 311710Z AUTO 21004KT 7SM -RA FEW008 SCT013 BKN028 07/06 A2995 RMK AO2
Loading
Personal Weather Stations






























Interactive Weather Map
Tropical Storm Tracking
New forecast layout! Learn more

10-Day Weather Forecast

Advertisements
Track Severe Weather on mobile